createdAt,value
2018-12-18T00:01:49.852Z,45.77
2018-12-18T00:04:20.402Z,40.40
2018-12-18T00:06:51.542Z,38.27
2018-12-18T00:09:22.086Z,32.73
2018-12-18T00:11:59.157Z,33.93
2018-12-18T00:14:25.967Z,32.53
2018-12-18T00:16:56.725Z,22.63
2018-12-18T00:19:27.573Z,13.60
2018-12-18T00:21:58.412Z,13.50
2018-12-18T00:24:29.572Z,16.07
2018-12-18T00:27:00.075Z,11.60
2018-12-18T00:29:31.293Z,12.67
2018-12-18T00:32:02.615Z,12.60
2018-12-18T00:34:33.359Z,13.27
2018-12-18T00:37:04.502Z,10.57
2018-12-18T00:39:35.339Z,17.30
2018-12-18T00:42:08.698Z,13.93
2018-12-18T00:44:39.885Z,11.03
2018-12-18T00:47:10.589Z,10.13
2018-12-18T00:49:41.414Z,11.80
2018-12-18T00:52:12.381Z,11.20
2018-12-18T00:54:42.995Z,13.80
2018-12-18T00:57:13.691Z,11.10
2018-12-18T00:59:44.484Z,11.20
2018-12-18T01:02:15.120Z,10.73
2018-12-18T01:04:47.125Z,11.57
2018-12-18T01:07:18.336Z,16.53
2018-12-18T01:09:49.682Z,11.53
2018-12-18T01:12:20.538Z,12.63
2018-12-18T01:14:51.239Z,11.57
2018-12-18T01:17:21.947Z,16.07
2018-12-18T01:19:52.906Z,17.37
2018-12-18T01:22:24.032Z,14.70
2018-12-18T01:24:54.863Z,16.97
2018-12-18T01:27:25.694Z,14.17
2018-12-18T01:29:56.646Z,14.07
2018-12-18T01:32:27.994Z,12.80
2018-12-18T01:34:58.687Z,13.03
2018-12-18T01:37:29.712Z,11.63
2018-12-18T01:40:00.267Z,16.73
2018-12-18T01:42:31.259Z,15.93
2018-12-18T01:45:02.063Z,18.33
2018-12-18T01:47:33.427Z,14.97
2018-12-18T01:50:05.382Z,15.97
2018-12-18T01:52:36.253Z,16.60
2018-12-18T01:55:07.703Z,22.03
2018-12-18T01:57:38.467Z,18.23
2018-12-18T02:00:09.702Z,18.70
2018-12-18T02:02:40.489Z,15.87
2018-12-18T02:05:11.161Z,16.10
2018-12-18T02:07:41.910Z,13.30
2018-12-18T02:10:14.117Z,21.40
2018-12-18T02:12:52.147Z,21.27
2018-12-18T02:15:42.523Z,20.70
2018-12-18T02:18:13.510Z,21.50
2018-12-18T02:20:47.215Z,19.00
2018-12-18T02:23:18.564Z,21.00
2018-12-18T02:25:49.119Z,24.23
2018-12-18T02:28:20.551Z,22.83
2018-12-18T02:30:51.657Z,23.20
2018-12-18T02:33:36.020Z,27.63
2018-12-18T02:36:23.988Z,31.00
2018-12-18T02:38:54.574Z,22.23
2018-12-18T02:41:27.321Z,28.23
2018-12-18T02:43:58.698Z,29.77
2018-12-18T02:46:29.875Z,31.67
2018-12-18T02:49:00.685Z,31.30
2018-12-18T02:51:31.353Z,26.90
2018-12-18T02:54:02.363Z,30.40
2018-12-18T02:56:33.222Z,25.83
2018-12-18T02:59:04.519Z,23.00
2018-12-18T03:01:35.434Z,31.30
2018-12-18T03:04:06.370Z,22.97
2018-12-18T03:06:36.891Z,26.57
2018-12-18T03:09:08.303Z,26.30
2018-12-18T03:11:39.141Z,20.50
2018-12-18T03:14:10.001Z,16.10
2018-12-18T03:16:40.817Z,18.43
2018-12-18T03:19:12.907Z,14.00
2018-12-18T03:21:43.416Z,13.80
2018-12-18T03:24:14.532Z,14.40
2018-12-18T03:26:45.550Z,13.50
2018-12-18T03:29:17.042Z,15.00
2018-12-18T03:31:53.086Z,12.40
2018-12-18T03:34:28.242Z,11.20
2018-12-18T03:36:57.225Z,11.60
2018-12-18T03:39:28.327Z,12.20
2018-12-18T03:41:59.138Z,12.90
2018-12-18T03:44:29.842Z,12.40
2018-12-18T03:47:01.013Z,13.57
2018-12-18T03:49:31.889Z,12.43
2018-12-18T03:52:02.465Z,12.70
2018-12-18T03:54:34.346Z,16.50
2018-12-18T03:57:05.594Z,11.40
2018-12-18T03:59:36.416Z,12.77
2018-12-18T04:02:07.276Z,18.87
2018-12-18T04:04:38.207Z,17.33
2018-12-18T04:07:09.289Z,12.30
2018-12-18T04:09:40.735Z,13.50
2018-12-18T04:12:16.012Z,15.10
2018-12-18T04:14:46.967Z,17.20
2018-12-18T04:17:18.126Z,14.30
2018-12-18T04:19:48.926Z,13.57
2018-12-18T04:22:20.400Z,12.30
2018-12-18T04:24:51.547Z,16.40
2018-12-18T04:27:22.087Z,13.67
2018-12-18T04:29:52.758Z,13.63
2018-12-18T04:32:23.630Z,14.17
2018-12-18T04:34:55.411Z,16.73
2018-12-18T04:37:26.063Z,13.00
2018-12-18T04:39:57.200Z,14.07
2018-12-18T04:42:28.363Z,16.27
2018-12-18T04:44:59.812Z,13.60
2018-12-18T04:47:30.604Z,13.47
2018-12-18T04:50:01.802Z,11.93
2018-12-18T04:52:33.403Z,11.30
2018-12-18T04:55:04.727Z,12.40
2018-12-18T04:57:35.611Z,12.30
2018-12-18T05:00:08.158Z,13.50
2018-12-18T05:02:38.991Z,13.07
2018-12-18T05:05:09.687Z,13.60
2018-12-18T05:07:40.394Z,12.53
2018-12-18T05:10:12.130Z,14.17
2018-12-18T05:12:43.291Z,12.70
2018-12-18T05:15:14.477Z,21.40
2018-12-18T05:17:45.271Z,15.93
2018-12-18T05:20:16.110Z,13.70
2018-12-18T05:23:12.466Z,16.73
2018-12-18T05:25:43.307Z,15.73
2018-12-18T05:28:14.442Z,17.90
2018-12-18T05:30:45.132Z,14.73
2018-12-18T05:33:16.233Z,20.20
2018-12-18T05:35:47.242Z,18.30
2018-12-18T05:38:19.036Z,19.10
2018-12-18T05:40:54.209Z,17.70
2018-12-18T05:43:24.971Z,19.43
2018-12-18T05:45:55.574Z,18.47
2018-12-18T05:48:27.199Z,17.10
2018-12-18T05:50:58.373Z,17.40
2018-12-18T05:53:40.957Z,22.17
2018-12-18T05:56:11.643Z,20.77
2018-12-18T05:58:42.599Z,20.27
2018-12-18T06:01:13.805Z,19.97
2018-12-18T06:03:44.807Z,19.63
2018-12-18T06:06:15.330Z,18.43
2018-12-18T06:08:45.853Z,18.87
2018-12-18T06:11:17.047Z,16.67
2018-12-18T06:13:47.852Z,17.97
2018-12-18T06:16:18.589Z,15.60
2018-12-18T06:18:49.515Z,18.20
2018-12-18T06:21:20.057Z,13.23
2018-12-18T06:23:51.222Z,18.70
2018-12-18T06:26:22.418Z,16.97
2018-12-18T06:28:53.260Z,15.33
2018-12-18T06:31:40.732Z,17.57
2018-12-18T06:34:12.079Z,21.47
2018-12-18T06:36:42.970Z,22.83
2018-12-18T06:39:14.433Z,20.33
2018-12-18T06:41:46.081Z,28.60
2018-12-18T06:44:17.070Z,23.30
2018-12-18T06:46:48.565Z,20.77
2018-12-18T06:49:19.721Z,23.43
2018-12-18T06:51:50.612Z,21.97
2018-12-18T06:54:21.767Z,21.80
2018-12-18T06:56:52.973Z,22.70
2018-12-18T06:59:23.582Z,25.20
2018-12-18T07:01:54.405Z,21.97
2018-12-18T07:04:25.200Z,22.70
2018-12-18T07:06:56.206Z,28.20
2018-12-18T07:09:27.265Z,20.00
2018-12-18T07:11:58.198Z,20.70
2018-12-18T07:14:29.679Z,18.30
2018-12-18T07:17:18.849Z,22.80
2018-12-18T07:19:49.678Z,31.00
2018-12-18T07:22:20.471Z,17.23
2018-12-18T07:24:51.450Z,16.50
2018-12-18T07:27:22.754Z,19.70
2018-12-18T07:29:53.590Z,20.40
2018-12-18T07:32:24.546Z,18.60
2018-12-18T07:34:55.270Z,16.83
2018-12-18T07:37:26.122Z,24.37
2018-12-18T07:39:56.943Z,16.90
2018-12-18T07:42:27.789Z,20.33
2018-12-18T07:44:58.356Z,17.70
2018-12-18T07:47:29.134Z,17.23
2018-12-18T07:50:00.600Z,17.67
2018-12-18T07:52:32.368Z,26.93
2018-12-18T07:55:03.727Z,18.63
2018-12-18T07:57:34.495Z,20.90
2018-12-18T08:00:05.690Z,18.20
2018-12-18T08:02:36.786Z,14.50
2018-12-18T08:05:08.446Z,15.10
2018-12-18T08:07:39.328Z,14.30
2018-12-18T08:10:10.232Z,14.47
2018-12-18T08:12:40.763Z,15.60
2018-12-18T08:15:12.089Z,17.63
2018-12-18T08:17:42.875Z,15.17
2018-12-18T08:20:13.676Z,14.30
2018-12-18T08:22:57.782Z,13.97
2018-12-18T08:25:48.667Z,16.63
2018-12-18T08:28:19.417Z,17.57
2018-12-18T08:30:50.103Z,15.43
2018-12-18T08:33:21.367Z,16.33
2018-12-18T08:35:52.079Z,15.23
2018-12-18T08:38:23.317Z,15.10
2018-12-18T08:40:54.723Z,18.00
2018-12-18T08:43:25.423Z,15.73
2018-12-18T08:45:56.190Z,17.43
2018-12-18T08:48:28.204Z,19.50
2018-12-18T08:50:59.354Z,15.13
2018-12-18T08:53:30.712Z,17.10
2018-12-18T08:56:03.228Z,17.23
2018-12-18T08:58:34.083Z,17.03
2018-12-18T09:01:05.227Z,15.33
2018-12-18T09:03:35.817Z,16.80
2018-12-18T09:06:06.964Z,14.40
2018-12-18T09:08:38.053Z,13.80
2018-12-18T09:11:09.303Z,28.10
2018-12-18T09:13:40.030Z,20.17
2018-12-18T09:16:16.199Z,17.37
2018-12-18T09:18:47.214Z,16.30
2018-12-18T09:21:17.924Z,15.87
2018-12-18T09:23:49.332Z,16.57
2018-12-18T09:26:20.346Z,15.80
2018-12-18T09:28:51.291Z,15.13
2018-12-18T09:31:22.026Z,21.33
2018-12-18T09:33:53.650Z,20.63
2018-12-18T09:36:24.163Z,25.10
2018-12-18T09:39:00.395Z,31.67
2018-12-18T09:41:35.643Z,50.50
2018-12-18T09:44:11.392Z,16.33
2018-12-18T09:46:52.957Z,19.93
2018-12-18T09:49:31.751Z,23.17
2018-12-18T09:52:03.065Z,18.57
2018-12-18T09:54:34.763Z,14.33
2018-12-18T09:57:09.224Z,72.83
2018-12-18T09:59:40.916Z,15.83
2018-12-18T10:02:12.302Z,15.97
2018-12-18T10:04:43.758Z,16.53
2018-12-18T10:07:14.986Z,39.27
2018-12-18T10:09:45.760Z,14.40
2018-12-18T10:12:20.731Z,17.57
2018-12-18T10:14:51.731Z,17.80
2018-12-18T10:17:22.749Z,15.50
2018-12-18T10:19:53.483Z,15.20
2018-12-18T10:22:24.388Z,13.40
2018-12-18T10:24:55.155Z,14.93
2018-12-18T10:27:26.559Z,19.80
2018-12-18T10:29:57.363Z,15.90
2018-12-18T10:32:28.281Z,12.40
2018-12-18T10:34:59.326Z,15.33
2018-12-18T10:37:30.038Z,38.20
2018-12-18T10:40:00.923Z,22.80
2018-12-18T10:42:32.773Z,14.47
2018-12-18T10:45:03.770Z,13.77
2018-12-18T10:47:34.878Z,12.00
2018-12-18T10:50:07.014Z,16.10
2018-12-18T10:52:37.941Z,12.40
2018-12-18T10:55:09.573Z,13.90
2018-12-18T10:57:41.063Z,13.60
2018-12-18T11:03:04.958Z,11.43
2018-12-18T11:05:37.468Z,11.73
2018-12-18T11:08:08.097Z,13.30
2018-12-18T11:10:38.954Z,15.50
2018-12-18T11:13:15.625Z,12.03
2018-12-18T11:16:01.788Z,19.90
2018-12-18T11:18:35.489Z,16.10
2018-12-18T11:21:06.396Z,18.23
2018-12-18T11:23:37.164Z,14.00
2018-12-18T11:26:14.916Z,17.43
2018-12-18T11:28:51.348Z,13.77
2018-12-18T11:31:34.271Z,15.87
2018-12-18T11:34:04.799Z,12.80
2018-12-18T11:36:35.620Z,11.80
2018-12-18T11:39:08.244Z,10.60
2018-12-18T11:41:39.435Z,10.80
2018-12-18T11:44:10.226Z,10.47
2018-12-18T11:46:41.370Z,14.23
2018-12-18T11:49:12.442Z,12.43
2018-12-18T11:51:43.338Z,16.20
2018-12-18T11:54:15.455Z,12.60
2018-12-18T11:56:47.173Z,12.90
2018-12-18T11:59:23.960Z,16.77
2018-12-18T12:02:16.699Z,10.77
2018-12-18T12:04:47.347Z,12.07
2018-12-18T12:07:18.240Z,18.70
2018-12-18T12:09:51.797Z,14.50
2018-12-18T12:12:28.045Z,12.40
2018-12-18T12:15:00.439Z,13.23
2018-12-18T12:17:34.129Z,14.23
2018-12-18T12:20:05.823Z,11.93
2018-12-18T12:22:36.662Z,17.80
2018-12-18T12:25:10.187Z,16.60
2018-12-18T12:27:46.911Z,13.40
2018-12-18T12:33:12.780Z,10.37
2018-12-18T12:35:43.339Z,13.33
2018-12-18T12:38:14.379Z,13.23
2018-12-18T12:40:45.109Z,12.57
2018-12-18T12:43:19.653Z,15.40
2018-12-18T12:45:50.603Z,11.43
2018-12-18T12:48:23.831Z,11.27
2018-12-18T12:50:55.109Z,14.50
2018-12-18T12:53:26.131Z,16.03
2018-12-18T12:55:58.364Z,62.83
2018-12-18T12:58:29.035Z,12.30
2018-12-18T13:01:00.179Z,13.93
2018-12-18T13:03:32.245Z,10.70
2018-12-18T13:06:03.371Z,8.37
2018-12-18T13:08:36.980Z,13.30
2018-12-18T13:11:08.842Z,11.07
2018-12-18T13:13:40.213Z,16.17
2018-12-18T13:16:11.038Z,10.53
2018-12-18T13:18:42.183Z,10.57
2018-12-18T13:21:13.487Z,8.37
2018-12-18T13:23:44.688Z,17.73
2018-12-18T13:26:15.507Z,13.63
2018-12-18T13:28:46.249Z,14.30
2018-12-18T13:31:16.808Z,8.53
2018-12-18T13:33:47.513Z,31.83
2018-12-18T13:36:19.026Z,30.23
2018-12-18T13:38:50.205Z,44.23
2018-12-18T13:41:20.867Z,36.03
2018-12-18T13:43:52.124Z,32.97
2018-12-18T13:49:29.761Z,58.80
2018-12-18T13:52:00.457Z,57.13
2018-12-18T13:54:31.307Z,49.70
2018-12-18T13:57:03.693Z,48.83
2018-12-18T13:59:35.681Z,50.40
2018-12-18T14:02:06.603Z,48.00
2018-12-18T14:04:37.340Z,53.00
2018-12-18T14:07:08.034Z,48.13
2018-12-18T14:09:38.920Z,49.73
2018-12-18T14:12:09.697Z,43.17
2018-12-18T14:14:40.409Z,52.77
2018-12-18T14:17:11.223Z,50.60
2018-12-18T14:19:41.911Z,48.20
2018-12-18T14:22:12.801Z,49.87
2018-12-18T14:24:43.571Z,48.70
2018-12-18T14:27:16.728Z,46.40
2018-12-18T14:29:49.244Z,45.60
2018-12-18T14:32:19.782Z,51.13
2018-12-18T14:34:51.405Z,50.43
2018-12-18T14:37:23.394Z,37.77
2018-12-18T14:39:55.235Z,48.40
2018-12-18T14:42:28.313Z,46.03
2018-12-18T14:44:59.494Z,40.43
2018-12-18T14:47:31.721Z,43.30
2018-12-18T14:50:02.875Z,47.20
2018-12-18T14:52:33.556Z,51.93
2018-12-18T14:55:04.711Z,58.67
2018-12-18T14:57:35.689Z,47.60
2018-12-18T15:00:07.331Z,47.57
2018-12-18T15:02:38.058Z,55.47
2018-12-18T15:05:08.958Z,53.87
2018-12-18T15:07:39.802Z,48.67
2018-12-18T15:10:10.499Z,45.83
2018-12-18T15:12:46.658Z,49.93
2018-12-18T15:15:35.540Z,53.13
2018-12-18T15:18:13.743Z,50.90
2018-12-18T15:20:57.322Z,55.00
2018-12-18T15:23:29.459Z,43.70
2018-12-18T15:26:01.640Z,42.20
2018-12-18T15:28:32.890Z,49.20
2018-12-18T15:31:03.835Z,49.80
2018-12-18T15:33:34.743Z,57.93
2018-12-18T15:36:05.737Z,56.27
2018-12-18T15:38:36.541Z,52.47
2018-12-18T15:41:22.991Z,50.13
2018-12-18T15:43:53.822Z,48.70
2018-12-18T15:46:24.898Z,53.63
2018-12-18T15:48:55.555Z,55.00
2018-12-18T15:51:26.461Z,48.97
2018-12-18T15:53:57.228Z,52.40
2018-12-18T15:56:27.909Z,51.13
2018-12-18T15:58:58.599Z,64.00
2018-12-18T16:01:29.694Z,55.00
2018-12-18T16:04:00.588Z,48.70
2018-12-18T16:06:31.420Z,60.20
2018-12-18T16:09:02.468Z,50.30
2018-12-18T16:11:33.417Z,45.80
2018-12-18T16:14:04.055Z,51.00
2018-12-18T16:16:34.782Z,46.50
2018-12-18T16:19:05.364Z,47.17
2018-12-18T16:21:36.341Z,48.63
2018-12-18T16:24:07.286Z,58.07
2018-12-18T16:26:38.074Z,55.00
2018-12-18T16:29:08.906Z,51.67
2018-12-18T16:31:39.658Z,46.83
2018-12-18T16:34:10.710Z,49.77
2018-12-18T16:36:41.650Z,53.80
2018-12-18T16:39:12.629Z,50.13
2018-12-18T16:41:43.794Z,45.80
2018-12-18T16:44:14.591Z,57.20
2018-12-18T16:46:47.536Z,49.10
2018-12-18T16:49:18.422Z,50.53
2018-12-18T16:51:49.655Z,51.90
2018-12-18T16:54:21.261Z,48.90
2018-12-18T16:56:52.019Z,46.93
2018-12-18T16:59:24.663Z,50.40
2018-12-18T17:01:55.930Z,58.03
2018-12-18T17:04:27.740Z,74.60
2018-12-18T17:06:58.418Z,62.73
2018-12-18T17:09:29.555Z,68.17
2018-12-18T17:12:00.617Z,69.37
2018-12-18T17:14:31.417Z,59.17
2018-12-18T17:17:03.611Z,62.77
2018-12-18T17:19:35.016Z,57.90
2018-12-18T17:22:05.748Z,63.43
2018-12-18T17:24:36.590Z,64.27
2018-12-18T17:27:07.863Z,56.90
2018-12-18T17:29:38.425Z,54.07
2018-12-18T17:32:09.444Z,48.23
2018-12-18T17:34:39.924Z,48.90
2018-12-18T17:37:10.624Z,65.03
2018-12-18T17:39:41.447Z,59.87
2018-12-18T17:42:12.058Z,51.30
2018-12-18T17:44:44.694Z,52.10
2018-12-18T17:47:15.691Z,64.83
2018-12-18T17:49:46.512Z,51.23
2018-12-18T17:52:17.686Z,55.47
2018-12-18T17:54:48.501Z,47.93
2018-12-18T17:57:19.268Z,49.57
2018-12-18T17:59:50.171Z,51.73
2018-12-18T18:02:20.852Z,47.67
2018-12-18T18:04:51.829Z,47.23
2018-12-18T18:07:23.870Z,52.93
2018-12-18T18:09:54.759Z,50.47
2018-12-18T18:12:29.931Z,59.83
2018-12-18T18:14:57.943Z,64.43
2018-12-18T18:17:28.830Z,65.07
2018-12-18T18:20:00.405Z,58.73
2018-12-18T18:22:31.823Z,58.33
2018-12-18T18:25:02.839Z,72.57
2018-12-18T18:27:34.159Z,70.53
2018-12-18T18:30:06.035Z,73.70
2018-12-18T18:32:36.948Z,67.13
2018-12-18T18:35:07.912Z,66.70
2018-12-18T18:37:38.509Z,64.87
2018-12-18T18:40:10.036Z,63.67
2018-12-18T18:42:40.822Z,55.37
2018-12-18T18:45:13.035Z,69.50
2018-12-18T18:48:06.790Z,74.70
2018-12-18T18:50:37.441Z,70.90
2018-12-18T18:53:08.488Z,60.30
2018-12-18T18:55:49.742Z,74.53
2018-12-18T18:58:20.704Z,64.17
2018-12-18T19:00:51.749Z,54.70
2018-12-18T19:03:22.370Z,56.83
2018-12-18T19:06:04.002Z,59.40
2018-12-18T19:08:35.636Z,56.83
2018-12-18T19:11:06.308Z,61.50
2018-12-18T19:13:37.279Z,62.40
2018-12-18T19:16:08.022Z,61.10
2018-12-18T19:18:38.990Z,62.37
2018-12-18T19:21:10.194Z,61.90
2018-12-18T19:23:40.779Z,60.23
2018-12-18T19:26:11.449Z,81.57
2018-12-18T19:28:42.676Z,69.60
2018-12-18T19:31:13.744Z,67.53
2018-12-18T19:33:44.526Z,77.73
2018-12-18T19:36:16.070Z,72.60
2018-12-18T19:38:46.874Z,62.07
2018-12-18T19:41:17.654Z,61.37
2018-12-18T19:43:48.620Z,63.93
2018-12-18T19:46:20.630Z,62.70
2018-12-18T19:48:51.327Z,64.23
2018-12-18T19:51:22.531Z,63.50
2018-12-18T19:53:53.475Z,63.77
2018-12-18T19:56:25.243Z,67.67
2018-12-18T19:58:56.584Z,65.50
2018-12-18T20:01:28.354Z,52.20
2018-12-18T20:03:59.295Z,70.67
2018-12-18T20:06:30.993Z,51.67
2018-12-18T20:09:06.253Z,48.50
2018-12-18T20:11:37.221Z,44.80
2018-12-18T20:14:09.196Z,50.13
2018-12-18T20:16:40.857Z,52.60
2018-12-18T20:19:11.913Z,53.80
2018-12-18T20:21:44.831Z,61.00
2018-12-18T20:24:15.854Z,47.17
2018-12-18T20:26:46.686Z,52.57
2018-12-18T20:29:18.851Z,51.73
2018-12-18T20:31:49.872Z,53.27
2018-12-18T20:34:20.940Z,60.03
2018-12-18T20:36:51.775Z,70.73
2018-12-18T20:39:22.675Z,61.50
2018-12-18T20:41:53.769Z,87.17
2018-12-18T20:44:26.118Z,74.93
2018-12-18T20:46:57.059Z,76.93
2018-12-18T20:49:28.307Z,58.47
2018-12-18T20:52:00.050Z,70.23
2018-12-18T20:54:31.583Z,57.87
2018-12-18T20:57:02.743Z,53.67
2018-12-18T20:59:33.482Z,54.80
2018-12-18T21:02:04.543Z,52.47
2018-12-18T21:04:35.497Z,57.40
2018-12-18T21:07:08.124Z,58.17
2018-12-18T21:09:41.560Z,53.63
2018-12-18T21:12:12.593Z,55.10
2018-12-18T21:14:43.511Z,56.73
2018-12-18T21:17:14.880Z,57.53
2018-12-18T21:19:46.259Z,52.17
2018-12-18T21:22:18.883Z,55.10
2018-12-18T21:24:49.859Z,52.90
2018-12-18T21:27:21.098Z,60.00
2018-12-18T21:29:51.962Z,56.27
2018-12-18T21:32:22.587Z,57.40
2018-12-18T21:34:53.300Z,52.00
2018-12-18T21:37:25.104Z,64.00
2018-12-18T21:39:56.753Z,52.63
2018-12-18T21:42:27.476Z,55.80
2018-12-18T21:44:58.831Z,57.07
2018-12-18T21:47:29.695Z,49.03
2018-12-18T21:50:00.525Z,49.67
2018-12-18T21:52:31.094Z,49.97
2018-12-18T21:55:02.620Z,46.90
2018-12-18T21:57:34.665Z,39.70
2018-12-18T22:00:08.958Z,46.73
2018-12-18T22:02:40.169Z,46.10
2018-12-18T22:05:11.455Z,47.17
2018-12-18T22:07:44.330Z,48.00
2018-12-18T22:10:18.829Z,59.83
2018-12-18T22:13:05.738Z,50.90
2018-12-18T22:15:38.010Z,47.47
2018-12-18T22:18:09.348Z,52.47
2018-12-18T22:20:47.457Z,50.30
2018-12-18T22:23:19.021Z,47.50
2018-12-18T22:25:57.437Z,48.90
2018-12-18T22:28:28.410Z,44.03
2018-12-18T22:31:01.679Z,56.37
2018-12-18T22:33:35.675Z,50.10
2018-12-18T22:36:06.974Z,49.50
2018-12-18T22:38:43.552Z,53.07
2018-12-18T22:41:12.370Z,53.60
2018-12-18T22:43:43.456Z,55.70
2018-12-18T22:46:15.614Z,45.50
2018-12-18T22:48:47.276Z,152.00
2018-12-18T22:51:19.020Z,49.97
2018-12-18T22:53:49.635Z,56.70
2018-12-18T22:56:20.370Z,51.77
2018-12-18T22:58:51.833Z,46.70
2018-12-18T23:01:28.240Z,57.10
2018-12-18T23:03:58.934Z,53.83
2018-12-18T23:06:31.359Z,54.57
2018-12-18T23:09:04.579Z,57.70
2018-12-18T23:11:35.833Z,57.47
2018-12-18T23:14:07.825Z,56.93
2018-12-18T23:16:40.993Z,54.50
2018-12-18T23:19:12.356Z,57.00
2018-12-18T23:21:43.251Z,61.03
2018-12-18T23:24:13.821Z,54.67
2018-12-18T23:26:45.062Z,56.53
2018-12-18T23:29:17.802Z,117.40
2018-12-18T23:31:49.508Z,65.40
2018-12-18T23:34:21.396Z,59.30
2018-12-18T23:36:52.254Z,62.93
2018-12-18T23:39:23.111Z,60.50
2018-12-18T23:41:54.089Z,64.33
2018-12-18T23:44:24.901Z,58.23
2018-12-18T23:46:55.810Z,61.47
2018-12-18T23:49:26.549Z,64.73
2018-12-18T23:51:57.639Z,66.47
2018-12-18T23:54:29.242Z,69.27
2018-12-18T23:57:00.610Z,66.67
2018-12-18T23:59:31.391Z,73.00
